Verkhne-Penzhino, Russia
Current Conditions -  °F | °C
As of 5:00 PM on Thursday 23 Oct 2014 (Local Time) from UHMM Reporting Station
Overcast Overcast  
Wind Chill: 23°   Ceiling: 2700
Heat Index: 23°   Visibility: 6mi
Dew Point: 19°   Wind: 0mph
Humidity: 86%   Direction: NA
Pressure: 29.29"   Gusts: NA
Location:  64.22°N, 164.23°E
Report Text: UHMM 230500Z 00000MPS 9999 BKN027 OVC100 M05/M07 Q0992 NOSIGRMK QFE729 88490535 MT OBSC
Loading
Personal Weather Stations






























Interactive Weather Map
Tropical Storm Tracking
New forecast layout! Learn more

10-Day Weather Forecast

Advertisements
Track Severe Weather on mobile